Time;durP1;ratioP1;P1;durP2;ratioP2;P2;SDS_P1;SDS_P2;PMS_P1;PMS_P2;Temp;Humidity;BMP_temperature;BMP_pressure;BME280_temperature;BME280_humidity;BME280_pressure;Samples;Min_cycle;Max_cycle;Signal;HPM_P1;HPM_P2
2023/12/25 00:01:37;;;;;;;2.40;1.90;;;;;;;;;;5030052;28;20641;-56
2023/12/25 00:04:03;;;;;;;2.30;1.80;;;;;;;;;;5029761;28;20599;-56
2023/12/25 00:06:29;;;;;;;2.07;1.80;;;;;;;;;;5023708;28;20572;-57
2023/12/25 00:08:55;;;;;;;2.37;1.60;;;;;;;;;;5028447;28;20158;-57
2023/12/25 00:11:22;;;;;;;2.63;1.90;;;;;;;;;;5029995;28;20181;-57
2023/12/25 00:13:51;;;;;;;2.27;2.07;;;;;;;;;;5017398;28;20760;-57
2023/12/25 00:16:17;;;;;;;1.77;1.67;;;;;;;;;;5026253;28;20225;-57
2023/12/25 00:18:43;;;;;;;3.60;1.73;;;;;;;;;;5026109;28;20205;-57
2023/12/25 00:21:09;;;;;;;1.80;1.63;;;;;;;;;;5018259;28;20212;-57
2023/12/25 00:23:35;;;;;;;2.47;1.60;;;;;;;;;;5024305;28;20514;-57
2023/12/25 00:26:01;;;;;;;2.97;2.00;;;;;;;;;;5036044;28;20196;-57
2023/12/25 00:28:27;;;;;;;1.90;1.43;;;;;;;;;;5029129;28;20186;-57
2023/12/25 00:30:53;;;;;;;1.93;1.70;;;;;;;;;;5028680;28;20186;-57
2023/12/25 00:33:19;;;;;;;2.33;1.60;;;;;;;;;;5029107;28;20660;-57
2023/12/25 00:35:45;;;;;;;3.73;1.83;;;;;;;;;;5025455;28;20177;-56
2023/12/25 00:38:11;;;;;;;2.30;1.87;;;;;;;;;;5022244;28;20206;-55
2023/12/25 00:40:37;;;;;;;2.93;1.83;;;;;;;;;;5020942;28;20637;-55
2023/12/25 00:43:03;;;;;;;2.47;2.00;;;;;;;;;;5024549;28;20174;-56
2023/12/25 00:45:29;;;;;;;4.67;2.23;;;;;;;;;;5027629;28;20598;-55
2023/12/25 00:47:55;;;;;;;1.77;1.50;;;;;;;;;;5030220;28;20197;-55
2023/12/25 00:50:21;;;;;;;1.77;1.67;;;;;;;;;;5029782;28;20200;-55
2023/12/25 00:52:47;;;;;;;2.73;1.90;;;;;;;;;;5033713;28;20272;-55
2023/12/25 00:55:13;;;;;;;3.63;1.83;;;;;;;;;;5033643;28;20669;-55
2023/12/25 00:57:39;;;;;;;1.70;1.57;;;;;;;;;;5032074;28;20206;-55
2023/12/25 01:00:05;;;;;;;1.97;1.60;;;;;;;;;;5033808;28;20170;-55
2023/12/25 01:02:31;;;;;;;2.40;1.90;;;;;;;;;;5031586;28;20721;-55
2023/12/25 01:04:57;;;;;;;4.00;1.70;;;;;;;;;;5031801;28;20220;-55
2023/12/25 01:07:23;;;;;;;1.60;1.50;;;;;;;;;;5032260;28;20239;-55
2023/12/25 01:09:49;;;;;;;2.27;1.60;;;;;;;;;;5029504;28;20181;-55
2023/12/25 01:12:15;;;;;;;1.97;1.77;;;;;;;;;;5029394;28;20517;-55
2023/12/25 01:14:45;;;;;;;1.50;1.33;;;;;;;;;;5029205;28;20285;-55
2023/12/25 01:17:11;;;;;;;3.00;1.77;;;;;;;;;;5020563;28;20236;-55
2023/12/25 01:19:37;;;;;;;2.60;1.80;;;;;;;;;;5026909;28;20209;-55
2023/12/25 01:22:03;;;;;;;1.67;1.53;;;;;;;;;;5032084;28;20162;-55
2023/12/25 01:24:29;;;;;;;2.10;1.77;;;;;;;;;;5031907;28;20985;-55
2023/12/25 01:26:55;;;;;;;3.27;1.80;;;;;;;;;;5027270;28;20178;-55
2023/12/25 01:29:21;;;;;;;1.50;1.40;;;;;;;;;;5029540;28;20170;-54
2023/12/25 01:31:47;;;;;;;4.00;1.93;;;;;;;;;;5030740;28;20551;-57
2023/12/25 01:34:13;;;;;;;1.60;1.50;;;;;;;;;;5026016;28;20280;-55
2023/12/25 01:36:40;;;;;;;3.20;1.77;;;;;;;;;;5029756;28;20324;-56
2023/12/25 01:39:06;;;;;;;1.63;1.53;;;;;;;;;;5026593;28;20189;-55
2023/12/25 01:41:32;;;;;;;2.30;1.57;;;;;;;;;;5027618;28;20181;-55
2023/12/25 01:43:58;;;;;;;1.73;1.63;;;;;;;;;;5031725;28;20177;-56
2023/12/25 01:46:25;;;;;;;3.13;1.53;;;;;;;;;;5020887;28;20214;-55
2023/12/25 01:48:52;;;;;;;3.10;1.50;;;;;;;;;;5025945;28;20190;-54
2023/12/25 01:51:22;;;;;;;1.60;1.50;;;;;;;;;;5030576;28;20186;-54
2023/12/25 01:53:49;;;;;;;1.50;1.40;;;;;;;;;;5023893;28;20270;-54
2023/12/25 01:56:16;;;;;;;1.53;1.43;;;;;;;;;;5030920;28;20542;-55
2023/12/25 01:58:42;;;;;;;1.67;1.57;;;;;;;;;;5029107;28;20215;-54
2023/12/25 02:01:08;;;;;;;1.77;1.63;;;;;;;;;;5027244;28;20167;-55
2023/12/25 02:03:34;;;;;;;1.80;1.70;;;;;;;;;;5030622;28;20596;-54
2023/12/25 02:06:00;;;;;;;1.80;1.67;;;;;;;;;;5028260;28;20242;-55
2023/12/25 02:08:26;;;;;;;1.87;1.67;;;;;;;;;;5030621;28;20634;-54
2023/12/25 02:10:52;;;;;;;2.07;1.80;;;;;;;;;;5030361;28;20699;-54
2023/12/25 02:13:18;;;;;;;1.47;1.37;;;;;;;;;;5031154;28;20205;-54
2023/12/25 02:17:29;;;;;;;1.60;1.50;;;;;;;;;;5046672;28;20611;-55
2023/12/25 02:19:55;;;;;;;1.83;1.63;;;;;;;;;;5046146;28;20538;-55
2023/12/25 02:22:21;;;;;;;1.70;1.60;;;;;;;;;;5046250;28;20602;-55
2023/12/25 02:25:00;;;;;;;2.27;1.67;;;;;;;;;;5045504;28;20263;-55
2023/12/25 02:27:26;;;;;;;2.43;1.50;;;;;;;;;;5045597;28;20195;-55
2023/12/25 02:29:52;;;;;;;1.80;1.67;;;;;;;;;;5046335;28;20184;-55
2023/12/25 02:32:18;;;;;;;2.17;2.00;;;;;;;;;;5046602;28;20178;-54
2023/12/25 02:34:47;;;;;;;1.40;1.30;;;;;;;;;;5045794;28;20198;-55
2023/12/25 02:37:13;;;;;;;1.77;1.47;;;;;;;;;;5046510;28;20587;-55
2023/12/25 02:39:39;;;;;;;1.50;1.40;;;;;;;;;;5044785;28;20288;-56
2023/12/25 02:42:05;;;;;;;1.60;1.50;;;;;;;;;;5043279;28;20191;-54
2023/12/25 02:44:31;;;;;;;2.30;1.43;;;;;;;;;;5044143;28;20196;-55
2023/12/25 02:46:57;;;;;;;2.03;1.60;;;;;;;;;;5045546;28;20185;-55
2023/12/25 02:49:23;;;;;;;1.60;1.50;;;;;;;;;;5044943;28;20181;-55
2023/12/25 02:51:49;;;;;;;2.47;1.30;;;;;;;;;;5046351;28;20177;-56
2023/12/25 02:54:15;;;;;;;1.60;1.50;;;;;;;;;;5048185;28;20208;-57
2023/12/25 02:56:41;;;;;;;1.50;1.40;;;;;;;;;;5055108;28;20631;-55
2023/12/25 02:59:07;;;;;;;1.67;1.57;;;;;;;;;;5046747;28;20641;-55
2023/12/25 03:01:33;;;;;;;1.80;1.50;;;;;;;;;;5039910;28;20194;-56
2023/12/25 03:03:59;;;;;;;1.47;1.30;;;;;;;;;;5043680;28;20178;-54
2023/12/25 03:06:25;;;;;;;1.53;1.43;;;;;;;;;;5045623;28;20212;-56
2023/12/25 03:08:51;;;;;;;2.17;1.60;;;;;;;;;;5045209;28;20185;-57
2023/12/25 03:11:17;;;;;;;2.13;1.70;;;;;;;;;;5036868;28;20185;-56
2023/12/25 03:13:43;;;;;;;1.70;1.60;;;;;;;;;;5045427;28;20211;-56
2023/12/25 03:16:09;;;;;;;1.40;1.30;;;;;;;;;;5043048;28;20562;-57
2023/12/25 03:18:35;;;;;;;1.70;1.60;;;;;;;;;;5044271;28;21849;-56
2023/12/25 03:21:01;;;;;;;2.03;1.93;;;;;;;;;;5044601;28;20207;-56
2023/12/25 03:23:27;;;;;;;4.53;2.27;;;;;;;;;;5045446;28;20208;-56
2023/12/25 03:25:53;;;;;;;1.97;1.80;;;;;;;;;;5055577;28;20173;-56
2023/12/25 03:28:20;;;;;;;2.13;1.93;;;;;;;;;;5034989;28;20281;-55
2023/12/25 03:30:45;;;;;;;2.90;1.93;;;;;;;;;;5028186;28;20187;-56
2023/12/25 03:33:11;;;;;;;2.33;2.13;;;;;;;;;;5040342;28;20538;-57
2023/12/25 03:35:38;;;;;;;2.43;2.23;;;;;;;;;;5032529;28;20205;-56
2023/12/25 03:38:04;;;;;;;5.50;1.80;;;;;;;;;;5032562;28;20174;-56
2023/12/25 03:40:30;;;;;;;2.30;2.10;;;;;;;;;;5031480;28;20177;-56
2023/12/25 03:42:56;;;;;;;1.73;1.63;;;;;;;;;;5032571;28;20668;-55
2023/12/25 03:45:22;;;;;;;2.67;2.00;;;;;;;;;;5032340;28;20269;-56
2023/12/25 03:47:48;;;;;;;1.60;1.50;;;;;;;;;;5031015;28;20629;-56
2023/12/25 03:50:14;;;;;;;2.63;1.90;;;;;;;;;;5031091;28;20542;-56
2023/12/25 03:52:40;;;;;;;2.43;2.00;;;;;;;;;;5032069;28;20925;-56
2023/12/25 03:55:06;;;;;;;1.87;1.70;;;;;;;;;;5031686;28;20186;-56
2023/12/25 03:57:33;;;;;;;1.70;1.60;;;;;;;;;;5031503;28;20194;-56
2023/12/25 03:59:59;;;;;;;1.90;1.80;;;;;;;;;;5036225;28;20231;-55
2023/12/25 04:02:25;;;;;;;2.07;1.67;;;;;;;;;;5039380;28;20180;-56
2023/12/25 04:04:51;;;;;;;2.80;2.10;;;;;;;;;;5031530;28;20185;-57
2023/12/25 04:07:17;;;;;;;2.37;2.17;;;;;;;;;;5032271;28;20188;-56
2023/12/25 04:09:43;;;;;;;2.73;2.53;;;;;;;;;;5044568;28;20194;-55
2023/12/25 04:12:09;;;;;;;2.70;2.50;;;;;;;;;;5032335;28;20178;-55
2023/12/25 04:14:41;;;;;;;4.00;2.57;;;;;;;;;;5031259;28;20198;-56
2023/12/25 04:17:07;;;;;;;4.50;4.10;;;;;;;;;;5029341;28;20233;-57
2023/12/25 04:19:33;;;;;;;4.00;2.90;;;;;;;;;;5030491;28;20217;-56
2023/12/25 04:21:59;;;;;;;2.53;2.33;;;;;;;;;;5030730;28;20201;-56
2023/12/25 04:24:25;;;;;;;2.47;2.20;;;;;;;;;;5026196;28;20641;-56
2023/12/25 04:26:51;;;;;;;2.53;2.30;;;;;;;;;;5025108;28;20216;-56
2023/12/25 04:29:17;;;;;;;4.53;2.30;;;;;;;;;;5029828;28;20194;-56
2023/12/25 04:31:43;;;;;;;4.83;4.20;;;;;;;;;;5031558;28;20595;-57
2023/12/25 04:34:09;;;;;;;2.70;2.30;;;;;;;;;;5030648;28;20642;-56
2023/12/25 04:36:35;;;;;;;2.20;2.00;;;;;;;;;;5029608;28;20197;-56
2023/12/25 04:39:02;;;;;;;2.33;1.97;;;;;;;;;;5022753;28;20178;-56
2023/12/25 04:41:28;;;;;;;2.30;2.10;;;;;;;;;;5025640;28;20185;-56
2023/12/25 04:43:54;;;;;;;2.00;1.90;;;;;;;;;;5029472;28;20177;-56
2023/12/25 04:46:20;;;;;;;2.07;1.87;;;;;;;;;;5031545;28;20196;-55
2023/12/25 04:48:47;;;;;;;3.40;2.43;;;;;;;;;;5029220;28;20189;-56
2023/12/25 04:51:13;;;;;;;1.97;1.77;;;;;;;;;;5035932;28;20324;-56
2023/12/25 04:53:39;;;;;;;2.13;1.93;;;;;;;;;;5030204;28;20197;-55
2023/12/25 04:56:05;;;;;;;1.80;1.67;;;;;;;;;;5030029;28;20197;-55
2023/12/25 04:58:31;;;;;;;3.10;2.00;;;;;;;;;;5030545;28;20627;-56
2023/12/25 05:00:57;;;;;;;1.67;1.50;;;;;;;;;;5028545;28;20543;-56
2023/12/25 05:03:23;;;;;;;2.07;1.83;;;;;;;;;;5028575;28;20188;-56
2023/12/25 05:05:49;;;;;;;1.47;1.37;;;;;;;;;;5030519;28;20652;-56
2023/12/25 05:08:16;;;;;;;2.20;2.00;;;;;;;;;;5030424;28;20208;-56
2023/12/25 05:10:42;;;;;;;2.03;1.70;;;;;;;;;;5028711;28;20806;-56
2023/12/25 05:13:08;;;;;;;1.77;1.63;;;;;;;;;;5039396;28;20201;-56
2023/12/25 05:15:34;;;;;;;1.70;1.60;;;;;;;;;;5033063;28;20681;-56
2023/12/25 05:18:00;;;;;;;1.40;1.30;;;;;;;;;;5029697;28;20198;-56
2023/12/25 05:20:27;;;;;;;1.57;1.47;;;;;;;;;;5029441;28;20174;-55
2023/12/25 05:22:53;;;;;;;1.50;1.40;;;;;;;;;;5025301;28;20178;-56
2023/12/25 05:25:19;;;;;;;2.60;2.40;;;;;;;;;;5029449;28;20186;-56
2023/12/25 05:27:45;;;;;;;1.40;1.30;;;;;;;;;;5029531;28;20185;-56
2023/12/25 05:30:12;;;;;;;1.50;1.40;;;;;;;;;;5028700;28;20177;-56
2023/12/25 05:32:38;;;;;;;1.30;1.20;;;;;;;;;;5030759;28;20181;-56
2023/12/25 05:35:04;;;;;;;1.40;1.30;;;;;;;;;;5028690;28;20228;-55
2023/12/25 05:37:31;;;;;;;1.43;1.30;;;;;;;;;;5029754;28;20205;-56
2023/12/25 05:39:57;;;;;;;1.30;1.20;;;;;;;;;;5024294;28;20204;-56
2023/12/25 05:42:23;;;;;;;1.30;1.20;;;;;;;;;;5025241;28;20214;-56
2023/12/25 05:44:49;;;;;;;1.97;1.30;;;;;;;;;;5030212;28;20184;-56
2023/12/25 05:47:15;;;;;;;1.83;1.40;;;;;;;;;;5029118;28;20190;-55
2023/12/25 05:49:41;;;;;;;1.40;1.30;;;;;;;;;;5030594;28;20204;-56
2023/12/25 05:52:07;;;;;;;1.30;1.20;;;;;;;;;;5029174;28;20281;-56
2023/12/25 05:54:33;;;;;;;1.30;1.20;;;;;;;;;;5028380;28;20186;-55
2023/12/25 05:56:59;;;;;;;1.07;1.03;;;;;;;;;;5028289;28;20604;-54
2023/12/25 05:59:25;;;;;;;0.87;0.87;;;;;;;;;;5028294;28;20209;-55
2023/12/25 06:01:54;;;;;;;1.23;1.13;;;;;;;;;;5028889;28;20569;-55
2023/12/25 06:04:20;;;;;;;1.60;1.47;;;;;;;;;;5018270;28;20179;-55
2023/12/25 06:06:47;;;;;;;1.10;1.00;;;;;;;;;;5027870;28;20197;-54
2023/12/25 06:09:14;;;;;;;1.40;1.30;;;;;;;;;;5028561;28;20328;-55
2023/12/25 06:11:40;;;;;;;1.30;1.20;;;;;;;;;;5029176;28;20556;-55
2023/12/25 06:14:06;;;;;;;0.90;0.90;;;;;;;;;;5030142;28;20209;-56
2023/12/25 06:16:32;;;;;;;0.90;0.90;;;;;;;;;;5024051;28;20860;-55
2023/12/25 06:18:58;;;;;;;1.10;1.10;;;;;;;;;;5034704;28;20210;-56
2023/12/25 06:21:25;;;;;;;0.83;0.83;;;;;;;;;;5024424;28;20185;-56
2023/12/25 06:23:51;;;;;;;0.90;0.90;;;;;;;;;;5026036;28;20201;-55
2023/12/25 06:26:17;;;;;;;2.17;1.00;;;;;;;;;;5029423;28;20185;-55
2023/12/25 06:28:43;;;;;;;0.83;0.83;;;;;;;;;;5029615;28;20187;-55
2023/12/25 06:31:09;;;;;;;0.90;0.90;;;;;;;;;;5019352;28;20190;-56
2023/12/25 06:33:35;;;;;;;2.03;1.20;;;;;;;;;;5031913;28;20217;-55
2023/12/25 06:36:01;;;;;;;0.90;0.90;;;;;;;;;;5029117;28;20198;-55
2023/12/25 06:38:27;;;;;;;1.13;1.07;;;;;;;;;;5029391;28;20193;-55
2023/12/25 06:40:53;;;;;;;1.10;1.10;;;;;;;;;;5029904;28;20178;-55
2023/12/25 06:43:19;;;;;;;2.23;1.10;;;;;;;;;;5029415;28;20177;-55
2023/12/25 06:45:45;;;;;;;1.10;1.10;;;;;;;;;;5027041;28;20259;-54
2023/12/25 06:48:11;;;;;;;1.07;0.90;;;;;;;;;;5034598;28;20239;-54
2023/12/25 06:50:38;;;;;;;1.10;1.10;;;;;;;;;;5029141;28;20236;-57
2023/12/25 06:53:05;;;;;;;1.00;1.00;;;;;;;;;;5025985;28;20197;-56
2023/12/25 06:55:31;;;;;;;1.00;1.00;;;;;;;;;;5025880;28;20190;-56
2023/12/25 06:57:57;;;;;;;1.00;1.00;;;;;;;;;;5028904;28;20222;-55
2023/12/25 07:00:23;;;;;;;2.03;1.40;;;;;;;;;;5029608;28;20534;-56
2023/12/25 07:02:50;;;;;;;2.27;1.17;;;;;;;;;;5029601;28;20542;-56
2023/12/25 07:05:16;;;;;;;1.50;1.03;;;;;;;;;;5032184;28;20261;-55
2023/12/25 07:07:42;;;;;;;2.17;1.10;;;;;;;;;;5031652;28;20181;-55
2023/12/25 07:10:08;;;;;;;1.50;1.40;;;;;;;;;;5029373;28;20571;-55
2023/12/25 07:12:35;;;;;;;0.97;0.97;;;;;;;;;;5025500;28;20182;-56
2023/12/25 07:15:01;;;;;;;1.30;1.10;;;;;;;;;;5029543;28;20273;-56
2023/12/25 07:17:27;;;;;;;1.30;1.20;;;;;;;;;;5030064;28;20564;-56
2023/12/25 07:19:53;;;;;;;1.07;1.00;;;;;;;;;;5031420;28;20205;-56
2023/12/25 07:22:19;;;;;;;1.20;1.10;;;;;;;;;;5032546;28;20934;-56
2023/12/25 07:24:45;;;;;;;1.33;1.30;;;;;;;;;;5032241;28;20220;-56
2023/12/25 07:27:11;;;;;;;2.20;1.20;;;;;;;;;;5031908;28;20213;-56
2023/12/25 07:29:37;;;;;;;1.40;1.30;;;;;;;;;;5031643;28;20242;-56
2023/12/25 07:32:03;;;;;;;1.50;1.40;;;;;;;;;;5032136;28;20273;-57
2023/12/25 07:34:29;;;;;;;1.77;1.50;;;;;;;;;;5031192;28;20632;-55
2023/12/25 07:36:55;;;;;;;1.70;1.60;;;;;;;;;;5031197;28;20204;-55
2023/12/25 07:39:21;;;;;;;1.90;1.70;;;;;;;;;;5034175;28;20186;-56
2023/12/25 07:41:47;;;;;;;2.63;1.50;;;;;;;;;;5033751;28;20733;-55
2023/12/25 07:44:13;;;;;;;1.73;1.63;;;;;;;;;;5024663;28;20498;-56
2023/12/25 07:46:39;;;;;;;2.17;1.97;;;;;;;;;;5030368;28;20194;-56
2023/12/25 07:49:08;;;;;;;2.10;1.90;;;;;;;;;;5030479;28;20724;-56
2023/12/25 07:51:34;;;;;;;2.40;2.03;;;;;;;;;;5031311;28;20837;-56
2023/12/25 07:54:01;;;;;;;2.43;1.90;;;;;;;;;;5030800;28;20182;-56
2023/12/25 07:56:27;;;;;;;2.40;2.13;;;;;;;;;;5030884;28;20570;-56
2023/12/25 07:58:53;;;;;;;2.63;2.30;;;;;;;;;;5031681;28;20189;-55
2023/12/25 08:01:22;;;;;;;2.80;2.53;;;;;;;;;;5031376;28;20185;-55
2023/12/25 08:03:48;;;;;;;4.03;3.10;;;;;;;;;;5037336;28;20207;-55
2023/12/25 08:06:14;;;;;;;2.97;2.67;;;;;;;;;;5030311;28;20184;-55
2023/12/25 08:08:40;;;;;;;4.67;2.53;;;;;;;;;;5031082;28;20182;-55
2023/12/25 08:11:06;;;;;;;3.10;2.70;;;;;;;;;;5029011;28;20559;-55
2023/12/25 08:13:32;;;;;;;3.53;2.73;;;;;;;;;;5031679;28;20204;-54
2023/12/25 08:15:58;;;;;;;3.40;2.73;;;;;;;;;;5034077;28;20248;-56
2023/12/25 08:18:24;;;;;;;3.13;2.80;;;;;;;;;;5031735;28;20177;-59
2023/12/25 08:20:50;;;;;;;4.27;2.83;;;;;;;;;;5022256;28;20182;-59
2023/12/25 08:23:16;;;;;;;4.00;3.23;;;;;;;;;;5030927;28;20177;-59
2023/12/25 08:25:42;;;;;;;5.87;3.33;;;;;;;;;;5031361;28;20185;-59
2023/12/25 08:28:08;;;;;;;4.97;3.57;;;;;;;;;;5031624;28;20213;-59
2023/12/25 08:30:35;;;;;;;4.43;3.27;;;;;;;;;;5035325;28;20196;-58
2023/12/25 08:33:01;;;;;;;3.50;3.10;;;;;;;;;;5030874;28;20307;-59
2023/12/25 08:35:27;;;;;;;3.53;3.23;;;;;;;;;;5034162;28;20183;-59
2023/12/25 08:37:53;;;;;;;4.03;3.63;;;;;;;;;;5019330;28;20609;-59
2023/12/25 08:40:19;;;;;;;4.27;3.20;;;;;;;;;;5030750;28;20642;-60
2023/12/25 08:42:46;;;;;;;4.60;3.70;;;;;;;;;;5034021;28;20178;-59
2023/12/25 08:45:12;;;;;;;5.37;3.83;;;;;;;;;;5032410;28;20205;-59
2023/12/25 08:47:38;;;;;;;3.97;3.53;;;;;;;;;;5027948;28;20229;-59
2023/12/25 08:50:04;;;;;;;4.20;3.73;;;;;;;;;;5027171;28;20276;-60
2023/12/25 08:52:30;;;;;;;3.00;2.77;;;;;;;;;;5029720;28;20185;-59
2023/12/25 08:54:56;;;;;;;2.90;2.70;;;;;;;;;;5030505;28;20226;-60
2023/12/25 08:57:23;;;;;;;2.93;2.70;;;;;;;;;;5030823;28;20605;-60
2023/12/25 08:59:49;;;;;;;2.90;2.30;;;;;;;;;;5030639;28;20512;-60
2023/12/25 09:02:17;;;;;;;2.43;1.80;;;;;;;;;;5031598;28;20174;-59
2023/12/25 09:04:43;;;;;;;2.00;1.83;;;;;;;;;;5028771;28;20176;-59
2023/12/25 09:07:09;;;;;;;1.40;1.30;;;;;;;;;;5030563;28;20180;-58
2023/12/25 09:09:35;;;;;;;1.73;1.50;;;;;;;;;;5029356;28;20448;-58
2023/12/25 09:12:01;;;;;;;1.40;1.30;;;;;;;;;;5027978;28;20193;-58
2023/12/25 09:14:27;;;;;;;1.90;1.50;;;;;;;;;;5028802;28;20213;-59
2023/12/25 09:16:53;;;;;;;1.40;1.30;;;;;;;;;;5028866;28;20708;-58
2023/12/25 09:19:19;;;;;;;1.10;1.10;;;;;;;;;;5028024;28;20211;-58
2023/12/25 09:21:45;;;;;;;1.20;1.20;;;;;;;;;;5030049;28;20174;-58
2023/12/25 09:24:12;;;;;;;1.23;1.13;;;;;;;;;;5029141;28;20233;-59
2023/12/25 09:26:38;;;;;;;1.03;1.00;;;;;;;;;;5030362;28;20186;-59
2023/12/25 09:29:04;;;;;;;2.37;1.10;;;;;;;;;;5026655;28;20182;-55
2023/12/25 09:31:30;;;;;;;1.00;1.00;;;;;;;;;;5026050;28;20532;-56
2023/12/25 09:33:56;;;;;;;0.93;0.93;;;;;;;;;;5029326;28;20586;-55
2023/12/25 09:36:24;;;;;;;1.53;1.43;;;;;;;;;;5029423;28;20193;-56
2023/12/25 09:38:50;;;;;;;1.10;1.10;;;;;;;;;;5028890;28;20166;-55
2023/12/25 09:41:17;;;;;;;0.90;0.90;;;;;;;;;;5030652;28;20640;-55
2023/12/25 09:43:46;;;;;;;1.07;1.00;;;;;;;;;;5041081;28;20715;-56
2023/12/25 09:46:13;;;;;;;1.20;1.20;;;;;;;;;;5024350;28;20179;-56
2023/12/25 09:48:39;;;;;;;1.43;1.20;;;;;;;;;;5025889;28;20168;-55
2023/12/25 09:51:09;;;;;;;0.80;0.80;;;;;;;;;;5027942;28;20248;-56
2023/12/25 09:53:35;;;;;;;0.90;0.90;;;;;;;;;;5029541;28;20175;-56
2023/12/25 09:56:02;;;;;;;1.60;1.00;;;;;;;;;;5029407;28;20300;-57
2023/12/25 09:58:28;;;;;;;1.03;1.00;;;;;;;;;;5029006;28;20186;-55
2023/12/25 10:00:55;;;;;;;1.20;1.10;;;;;;;;;;5027535;28;20182;-60
2023/12/25 10:03:21;;;;;;;1.10;1.07;;;;;;;;;;5039224;28;20523;-59
2023/12/25 10:05:47;;;;;;;1.47;1.20;;;;;;;;;;5028577;28;20182;-60
2023/12/25 10:08:13;;;;;;;1.53;1.37;;;;;;;;;;5022345;28;20169;-60
2023/12/25 10:10:39;;;;;;;2.00;1.30;;;;;;;;;;5022760;28;20187;-59
2023/12/25 10:13:05;;;;;;;1.70;1.60;;;;;;;;;;5028538;28;20206;-59
2023/12/25 10:15:31;;;;;;;1.63;1.30;;;;;;;;;;5023459;28;20225;-60
2023/12/25 10:18:04;;;;;;;1.70;1.43;;;;;;;;;;5026742;28;20554;-60
2023/12/25 10:20:30;;;;;;;1.90;1.57;;;;;;;;;;5027504;28;20253;-60
2023/12/25 10:22:57;;;;;;;1.47;1.37;;;;;;;;;;5043657;28;20518;-60
2023/12/25 10:25:28;;;;;;;1.70;1.60;;;;;;;;;;5033372;28;20185;-60
2023/12/25 10:27:54;;;;;;;1.60;1.40;;;;;;;;;;5029106;28;20292;-59
2023/12/25 10:30:20;;;;;;;1.87;1.40;;;;;;;;;;5023583;28;20185;-59
2023/12/25 10:32:47;;;;;;;4.93;1.30;;;;;;;;;;5030696;28;20184;-60
2023/12/25 10:35:14;;;;;;;1.50;1.40;;;;;;;;;;5027541;28;20228;-59
2023/12/25 10:37:41;;;;;;;2.80;1.63;;;;;;;;;;5030231;28;20552;-60
2023/12/25 10:40:20;;;;;;;2.20;1.27;;;;;;;;;;5030280;28;20185;-59
2023/12/25 10:42:50;;;;;;;1.30;1.20;;;;;;;;;;5030320;28;20174;-59
2023/12/25 10:45:22;;;;;;;1.40;1.30;;;;;;;;;;5029992;28;20182;-59
2023/12/25 10:47:52;;;;;;;1.90;1.27;;;;;;;;;;5033508;28;20186;-59
2023/12/25 10:50:22;;;;;;;2.20;1.40;;;;;;;;;;5030956;28;20193;-60
2023/12/25 10:52:49;;;;;;;1.30;1.20;;;;;;;;;;5024909;28;20185;-59
2023/12/25 10:55:19;;;;;;;1.03;0.93;;;;;;;;;;5032477;28;20210;-60
2023/12/25 10:57:45;;;;;;;1.00;1.00;;;;;;;;;;5026830;28;20638;-59
2023/12/25 11:00:12;;;;;;;1.00;1.00;;;;;;;;;;5027468;28;20182;-60
2023/12/25 11:02:39;;;;;;;3.03;1.10;;;;;;;;;;5032438;28;20200;-59
2023/12/25 11:05:06;;;;;;;1.00;1.00;;;;;;;;;;5031453;28;20642;-60
2023/12/25 11:07:32;;;;;;;1.57;1.47;;;;;;;;;;5032219;28;20197;-60
2023/12/25 11:10:00;;;;;;;1.00;1.00;;;;;;;;;;5030076;28;20691;-60
2023/12/25 11:12:27;;;;;;;1.43;1.30;;;;;;;;;;5032239;28;20614;-60
2023/12/25 11:14:53;;;;;;;1.00;1.00;;;;;;;;;;5027123;28;20506;-60
2023/12/25 11:17:19;;;;;;;1.07;1.07;;;;;;;;;;5028003;28;20697;-59
2023/12/25 11:19:46;;;;;;;0.80;0.80;;;;;;;;;;5033546;28;20689;-60
2023/12/25 11:22:35;;;;;;;0.90;0.90;;;;;;;;;;5022897;28;20236;-60
2023/12/25 11:25:03;;;;;;;1.13;1.03;;;;;;;;;;5027173;28;20549;-60
2023/12/25 11:27:30;;;;;;;1.67;1.00;;;;;;;;;;5029179;28;20194;-59
2023/12/25 11:30:14;;;;;;;1.20;1.10;;;;;;;;;;5031485;28;20193;-59
2023/12/25 11:32:46;;;;;;;1.00;1.00;;;;;;;;;;5030996;28;20181;-60
2023/12/25 11:35:13;;;;;;;1.03;1.00;;;;;;;;;;5032121;28;20189;-59
2023/12/25 11:37:39;;;;;;;1.10;1.10;;;;;;;;;;5027029;28;20264;-60
2023/12/25 11:40:06;;;;;;;1.00;1.00;;;;;;;;;;5032445;28;20178;-60
2023/12/25 11:42:33;;;;;;;1.30;1.20;;;;;;;;;;5031548;28;20496;-59
2023/12/25 11:45:06;;;;;;;1.90;1.03;;;;;;;;;;5031830;28;20181;-60
2023/12/25 11:47:39;;;;;;;1.43;1.33;;;;;;;;;;5031229;28;20661;-55
2023/12/25 11:50:06;;;;;;;1.17;1.10;;;;;;;;;;5030568;28;20593;-56
2023/12/25 11:52:44;;;;;;;0.90;0.90;;;;;;;;;;5030682;28;20182;-55
2023/12/25 11:55:13;;;;;;;1.30;1.20;;;;;;;;;;5032502;28;20185;-56
2023/12/25 11:57:41;;;;;;;1.37;1.10;;;;;;;;;;5032587;28;20201;-56
2023/12/25 12:00:07;;;;;;;2.50;1.20;;;;;;;;;;5031046;28;20200;-57
2023/12/25 12:02:34;;;;;;;1.40;1.30;;;;;;;;;;5020739;28;20182;-55
2023/12/25 12:05:00;;;;;;;1.10;1.00;;;;;;;;;;5031716;28;20174;-57
2023/12/25 12:07:26;;;;;;;1.07;1.07;;;;;;;;;;5031957;28;20178;-56
2023/12/25 12:09:52;;;;;;;1.30;1.20;;;;;;;;;;5031740;28;20184;-56
2023/12/25 12:12:18;;;;;;;1.40;1.30;;;;;;;;;;5031548;28;20209;-56
2023/12/25 12:14:44;;;;;;;1.97;1.40;;;;;;;;;;5030254;28;20233;-55
2023/12/25 12:17:10;;;;;;;1.50;1.40;;;;;;;;;;5029902;28;20704;-56
2023/12/25 12:19:37;;;;;;;1.50;1.40;;;;;;;;;;5028537;28;20209;-56
2023/12/25 12:22:03;;;;;;;1.40;1.30;;;;;;;;;;5028661;28;20205;-55
2023/12/25 12:24:29;;;;;;;1.87;1.77;;;;;;;;;;5030313;28;20178;-56
2023/12/25 12:27:02;;;;;;;2.00;1.80;;;;;;;;;;5037482;28;20275;-55
2023/12/25 12:29:28;;;;;;;1.57;1.43;;;;;;;;;;5025556;28;20182;-55
2023/12/25 12:31:54;;;;;;;1.97;1.63;;;;;;;;;;5033457;28;20641;-56
2023/12/25 12:34:20;;;;;;;1.40;1.30;;;;;;;;;;5030781;28;20265;-55
2023/12/25 12:37:07;;;;;;;1.43;1.30;;;;;;;;;;5031668;28;20697;-57
2023/12/25 12:39:33;;;;;;;1.40;1.30;;;;;;;;;;5029039;28;20178;-55
2023/12/25 12:42:00;;;;;;;1.60;1.50;;;;;;;;;;5027883;28;20182;-56
2023/12/25 12:44:26;;;;;;;1.20;1.10;;;;;;;;;;5022387;28;20273;-56
2023/12/25 12:46:53;;;;;;;1.50;1.33;;;;;;;;;;5029087;28;20188;-56
2023/12/25 12:49:20;;;;;;;1.30;1.20;;;;;;;;;;5027020;28;20181;-55
2023/12/25 12:51:46;;;;;;;1.40;1.30;;;;;;;;;;5028687;28;20189;-57
2023/12/25 12:54:12;;;;;;;1.40;1.30;;;;;;;;;;5027418;28;20205;-56
2023/12/25 12:56:38;;;;;;;1.40;1.30;;;;;;;;;;5025768;28;20604;-55
2023/12/25 12:59:04;;;;;;;1.33;1.27;;;;;;;;;;5029003;28;20576;-57
2023/12/25 13:01:31;;;;;;;1.10;1.00;;;;;;;;;;5030075;28;20675;-57
2023/12/25 13:03:57;;;;;;;1.30;1.20;;;;;;;;;;5025525;28;20256;-58
2023/12/25 13:06:25;;;;;;;1.80;1.20;;;;;;;;;;5028303;28;20209;-57
2023/12/25 13:08:53;;;;;;;1.47;1.37;;;;;;;;;;5023543;28;20193;-58
2023/12/25 13:11:24;;;;;;;1.10;1.00;;;;;;;;;;5028213;28;20217;-58
2023/12/25 13:13:50;;;;;;;1.23;1.17;;;;;;;;;;5025577;28;20585;-58
2023/12/25 13:16:18;;;;;;;1.47;1.30;;;;;;;;;;5028632;28;20221;-59
2023/12/25 13:18:45;;;;;;;1.03;1.03;;;;;;;;;;5026608;28;20256;-58
2023/12/25 13:21:11;;;;;;;1.53;1.43;;;;;;;;;;5027913;28;20182;-58
2023/12/25 13:23:37;;;;;;;1.50;1.40;;;;;;;;;;5027127;28;20420;-59
2023/12/25 13:26:03;;;;;;;1.10;1.10;;;;;;;;;;5027260;28;20223;-59
2023/12/25 13:28:29;;;;;;;1.07;1.07;;;;;;;;;;5031202;28;20542;-59
2023/12/25 13:30:56;;;;;;;1.00;1.00;;;;;;;;;;5026071;28;20296;-58
2023/12/25 13:33:22;;;;;;;1.10;1.10;;;;;;;;;;5023795;28;20182;-58
2023/12/25 13:35:48;;;;;;;1.00;0.90;;;;;;;;;;5026021;28;20190;-59
2023/12/25 13:38:14;;;;;;;1.30;1.20;;;;;;;;;;5026980;28;20553;-59
2023/12/25 13:40:41;;;;;;;1.00;1.00;;;;;;;;;;5025583;28;20191;-58
2023/12/25 13:43:07;;;;;;;0.87;0.87;;;;;;;;;;5022305;28;20178;-58
2023/12/25 13:45:34;;;;;;;1.10;1.00;;;;;;;;;;5024159;28;20201;-58
2023/12/25 13:48:00;;;;;;;1.90;1.23;;;;;;;;;;5024473;28;20177;-58
2023/12/25 13:50:26;;;;;;;1.40;1.30;;;;;;;;;;5024033;28;20198;-58
2023/12/25 13:52:52;;;;;;;1.90;1.10;;;;;;;;;;5024850;28;20739;-58
2023/12/25 13:55:18;;;;;;;1.00;1.00;;;;;;;;;;5025891;28;20178;-58
2023/12/25 13:57:46;;;;;;;1.20;1.10;;;;;;;;;;5025304;28;20292;-58
2023/12/25 14:00:13;;;;;;;1.20;1.10;;;;;;;;;;5025377;28;20192;-58
2023/12/25 14:02:39;;;;;;;2.60;1.20;;;;;;;;;;5023754;28;20269;-58
2023/12/25 14:05:05;;;;;;;1.20;1.10;;;;;;;;;;5025571;28;20795;-59
2023/12/25 14:07:32;;;;;;;1.00;1.00;;;;;;;;;;5022084;28;20224;-58
2023/12/25 14:09:58;;;;;;;1.73;1.30;;;;;;;;;;5021204;28;20284;-58
2023/12/25 14:12:24;;;;;;;1.30;1.20;;;;;;;;;;5011763;28;20178;-58
2023/12/25 14:14:50;;;;;;;1.40;1.30;;;;;;;;;;5022569;28;20182;-58
2023/12/25 14:17:16;;;;;;;1.40;1.30;;;;;;;;;;5024551;28;20895;-59
2023/12/25 14:19:42;;;;;;;1.30;1.10;;;;;;;;;;5021727;28;20185;-56
2023/12/25 14:22:09;;;;;;;1.60;1.10;;;;;;;;;;5020914;28;20169;-56
2023/12/25 14:24:38;;;;;;;1.10;1.10;;;;;;;;;;5022034;28;20175;-58
2023/12/25 14:27:08;;;;;;;1.20;1.10;;;;;;;;;;5021358;28;20180;-56
2023/12/25 14:29:35;;;;;;;1.07;1.07;;;;;;;;;;5025393;28;20581;-56
2023/12/25 14:32:03;;;;;;;2.50;1.30;;;;;;;;;;5019583;28;20196;-57
2023/12/25 14:34:29;;;;;;;1.10;1.00;;;;;;;;;;5021570;28;20186;-55
2023/12/25 14:36:55;;;;;;;1.30;1.20;;;;;;;;;;5026381;28;20300;-55
2023/12/25 14:39:22;;;;;;;1.10;1.00;;;;;;;;;;5025843;28;20224;-56
2023/12/25 14:41:48;;;;;;;0.90;0.90;;;;;;;;;;5023575;28;20656;-56